sensor_id;sensor_type;location;lat;lon;timestamp;temperature;humidity
23637;DHT22;11995;50.842;4.456;2023-07-09T00:02:23;23.00;99.90
23637;DHT22;11995;50.842;4.456;2023-07-09T00:04:50;22.90;99.90
23637;DHT22;11995;50.842;4.456;2023-07-09T00:07:19;22.90;99.90
23637;DHT22;11995;50.842;4.456;2023-07-09T00:09:45;22.90;99.90
23637;DHT22;11995;50.842;4.456;2023-07-09T00:12:13;22.90;99.90
23637;DHT22;11995;50.842;4.456;2023-07-09T00:14:42;22.90;99.90
23637;DHT22;11995;50.842;4.456;2023-07-09T00:17:17;22.80;99.90
23637;DHT22;11995;50.842;4.456;2023-07-09T00:19:40;22.70;99.90
23637;DHT22;11995;50.842;4.456;2023-07-09T00:22:10;22.70;99.90
23637;DHT22;11995;50.842;4.456;2023-07-09T00:24:37;22.70;99.90
23637;DHT22;11995;50.842;4.456;2023-07-09T00:27:04;22.70;99.90
23637;DHT22;11995;50.842;4.456;2023-07-09T00:29:32;22.70;99.90
23637;DHT22;11995;50.842;4.456;2023-07-09T00:31:59;22.70;99.90
23637;DHT22;11995;50.842;4.456;2023-07-09T00:34:25;22.70;99.90
23637;DHT22;11995;50.842;4.456;2023-07-09T00:36:52;22.70;99.90
23637;DHT22;11995;50.842;4.456;2023-07-09T00:39:20;22.70;99.90
23637;DHT22;11995;50.842;4.456;2023-07-09T00:41:48;22.70;99.90
23637;DHT22;11995;50.842;4.456;2023-07-09T00:49:32;22.40;99.90
23637;DHT22;11995;50.842;4.456;2023-07-09T00:52:00;22.30;99.90
23637;DHT22;11995;50.842;4.456;2023-07-09T00:54:36;22.30;99.90
23637;DHT22;11995;50.842;4.456;2023-07-09T00:57:00;22.30;99.90
23637;DHT22;11995;50.842;4.456;2023-07-09T00:59:27;22.40;99.90
23637;DHT22;11995;50.842;4.456;2023-07-09T01:01:57;22.40;99.90
23637;DHT22;11995;50.842;4.456;2023-07-09T01:04:26;22.40;99.90
23637;DHT22;11995;50.842;4.456;2023-07-09T01:06:54;22.50;99.90
23637;DHT22;11995;50.842;4.456;2023-07-09T01:09:22;22.40;99.90
23637;DHT22;11995;50.842;4.456;2023-07-09T01:11:49;22.40;99.90
23637;DHT22;11995;50.842;4.456;2023-07-09T01:14:17;22.50;99.90
23637;DHT22;11995;50.842;4.456;2023-07-09T01:16:52;22.40;99.90
23637;DHT22;11995;50.842;4.456;2023-07-09T01:19:28;22.40;99.90
23637;DHT22;11995;50.842;4.456;2023-07-09T01:21:55;22.30;99.90
23637;DHT22;11995;50.842;4.456;2023-07-09T01:27:09;22.30;99.90
23637;DHT22;11995;50.842;4.456;2023-07-09T01:29:36;22.30;99.90
23637;DHT22;11995;50.842;4.456;2023-07-09T01:32:04;22.30;99.90
23637;DHT22;11995;50.842;4.456;2023-07-09T01:34:32;22.30;99.90
23637;DHT22;11995;50.842;4.456;2023-07-09T01:36:59;22.30;99.90
23637;DHT22;11995;50.842;4.456;2023-07-09T01:39:26;22.30;99.90
23637;DHT22;11995;50.842;4.456;2023-07-09T01:41:56;22.30;99.90
23637;DHT22;11995;50.842;4.456;2023-07-09T01:44:22;22.30;99.90
23637;DHT22;11995;50.842;4.456;2023-07-09T01:46:49;22.30;99.90
23637;DHT22;11995;50.842;4.456;2023-07-09T01:49:16;22.30;99.90
23637;DHT22;11995;50.842;4.456;2023-07-09T01:51:43;22.30;99.90
23637;DHT22;11995;50.842;4.456;2023-07-09T01:54:12;22.30;99.90
23637;DHT22;11995;50.842;4.456;2023-07-09T01:56:38;22.20;99.90
23637;DHT22;11995;50.842;4.456;2023-07-09T01:59:05;22.20;99.90
23637;DHT22;11995;50.842;4.456;2023-07-09T02:01:33;22.20;99.90
23637;DHT22;11995;50.842;4.456;2023-07-09T02:03:59;22.20;99.90
23637;DHT22;11995;50.842;4.456;2023-07-09T02:06:26;22.20;99.90
23637;DHT22;11995;50.842;4.456;2023-07-09T02:08:55;22.20;99.90
23637;DHT22;11995;50.842;4.456;2023-07-09T02:11:21;22.20;99.90
23637;DHT22;11995;50.842;4.456;2023-07-09T02:13:48;22.20;99.90
23637;DHT22;11995;50.842;4.456;2023-07-09T02:16:15;22.20;99.90
23637;DHT22;11995;50.842;4.456;2023-07-09T02:18:51;22.10;99.90
23637;DHT22;11995;50.842;4.456;2023-07-09T02:21:18;22.10;99.90
23637;DHT22;11995;50.842;4.456;2023-07-09T02:23:44;22.10;99.90
23637;DHT22;11995;50.842;4.456;2023-07-09T02:26:11;22.10;99.90
23637;DHT22;11995;50.842;4.456;2023-07-09T02:28:38;22.10;99.90
23637;DHT22;11995;50.842;4.456;2023-07-09T02:31:05;22.10;99.90
23637;DHT22;11995;50.842;4.456;2023-07-09T02:33:33;22.10;99.90
23637;DHT22;11995;50.842;4.456;2023-07-09T02:36:01;22.10;99.90
23637;DHT22;11995;50.842;4.456;2023-07-09T02:38:28;22.10;99.90
23637;DHT22;11995;50.842;4.456;2023-07-09T02:40:55;22.10;99.90
23637;DHT22;11995;50.842;4.456;2023-07-09T02:43:22;22.10;99.90
23637;DHT22;11995;50.842;4.456;2023-07-09T02:45:48;22.00;99.90
23637;DHT22;11995;50.842;4.456;2023-07-09T02:48:15;22.10;99.90
23637;DHT22;11995;50.842;4.456;2023-07-09T02:50:42;22.00;99.90
23637;DHT22;11995;50.842;4.456;2023-07-09T02:53:09;22.00;99.90
23637;DHT22;11995;50.842;4.456;2023-07-09T02:55:35;22.00;99.90
23637;DHT22;11995;50.842;4.456;2023-07-09T02:58:02;22.00;99.90
23637;DHT22;11995;50.842;4.456;2023-07-09T03:00:29;21.90;99.90
23637;DHT22;11995;50.842;4.456;2023-07-09T03:02:56;22.00;99.90
23637;DHT22;11995;50.842;4.456;2023-07-09T03:05:23;22.00;99.90
23637;DHT22;11995;50.842;4.456;2023-07-09T03:07:50;22.10;99.90
23637;DHT22;11995;50.842;4.456;2023-07-09T03:10:17;22.20;99.90
23637;DHT22;11995;50.842;4.456;2023-07-09T03:12:44;22.30;99.90
23637;DHT22;11995;50.842;4.456;2023-07-09T03:15:12;22.50;99.90
23637;DHT22;11995;50.842;4.456;2023-07-09T03:17:39;22.50;99.90
23637;DHT22;11995;50.842;4.456;2023-07-09T03:20:06;22.60;99.90
23637;DHT22;11995;50.842;4.456;2023-07-09T03:22:33;22.70;99.90
23637;DHT22;11995;50.842;4.456;2023-07-09T03:25:01;23.00;99.90
23637;DHT22;11995;50.842;4.456;2023-07-09T03:27:28;23.00;99.90
23637;DHT22;11995;50.842;4.456;2023-07-09T03:29:55;23.10;99.90
23637;DHT22;11995;50.842;4.456;2023-07-09T03:32:21;23.00;99.90
23637;DHT22;11995;50.842;4.456;2023-07-09T03:34:48;23.10;99.90
23637;DHT22;11995;50.842;4.456;2023-07-09T03:37:15;23.20;99.90
23637;DHT22;11995;50.842;4.456;2023-07-09T03:39:42;23.30;99.90
23637;DHT22;11995;50.842;4.456;2023-07-09T03:42:09;23.20;99.90
23637;DHT22;11995;50.842;4.456;2023-07-09T03:44:35;23.40;99.90
23637;DHT22;11995;50.842;4.456;2023-07-09T03:47:02;23.40;99.90
23637;DHT22;11995;50.842;4.456;2023-07-09T03:49:30;23.40;99.90
23637;DHT22;11995;50.842;4.456;2023-07-09T03:51:56;23.40;99.90
23637;DHT22;11995;50.842;4.456;2023-07-09T03:54:23;23.40;99.90
23637;DHT22;11995;50.842;4.456;2023-07-09T03:56:50;23.40;99.90
23637;DHT22;11995;50.842;4.456;2023-07-09T03:59:17;23.40;99.90
23637;DHT22;11995;50.842;4.456;2023-07-09T04:01:44;23.40;99.90
23637;DHT22;11995;50.842;4.456;2023-07-09T04:04:12;23.50;99.90
23637;DHT22;11995;50.842;4.456;2023-07-09T04:06:39;23.40;99.90
23637;DHT22;11995;50.842;4.456;2023-07-09T04:09:06;23.50;99.90
23637;DHT22;11995;50.842;4.456;2023-07-09T04:11:33;23.40;99.90
23637;DHT22;11995;50.842;4.456;2023-07-09T04:13:59;23.00;99.90
23637;DHT22;11995;50.842;4.456;2023-07-09T04:16:26;22.80;99.90
23637;DHT22;11995;50.842;4.456;2023-07-09T04:18:53;22.80;99.90
23637;DHT22;11995;50.842;4.456;2023-07-09T04:21:20;22.80;99.90
23637;DHT22;11995;50.842;4.456;2023-07-09T04:23:47;22.90;99.90
23637;DHT22;11995;50.842;4.456;2023-07-09T04:26:13;23.00;99.90
23637;DHT22;11995;50.842;4.456;2023-07-09T04:28:40;23.10;99.90
23637;DHT22;11995;50.842;4.456;2023-07-09T04:31:07;23.10;99.90
23637;DHT22;11995;50.842;4.456;2023-07-09T04:33:34;23.30;99.90
23637;DHT22;11995;50.842;4.456;2023-07-09T04:36:01;23.30;99.90
23637;DHT22;11995;50.842;4.456;2023-07-09T04:38:33;23.40;99.90
23637;DHT22;11995;50.842;4.456;2023-07-09T04:41:00;23.40;99.90
23637;DHT22;11995;50.842;4.456;2023-07-09T04:43:26;23.50;99.90
23637;DHT22;11995;50.842;4.456;2023-07-09T04:45:53;23.50;99.90
23637;DHT22;11995;50.842;4.456;2023-07-09T04:48:20;23.60;99.90
23637;DHT22;11995;50.842;4.456;2023-07-09T04:50:47;23.60;99.90
23637;DHT22;11995;50.842;4.456;2023-07-09T04:53:16;23.60;99.90
23637;DHT22;11995;50.842;4.456;2023-07-09T04:55:43;23.50;99.90
23637;DHT22;11995;50.842;4.456;2023-07-09T04:58:10;23.60;99.90
23637;DHT22;11995;50.842;4.456;2023-07-09T05:00:36;23.50;99.90
23637;DHT22;11995;50.842;4.456;2023-07-09T05:03:03;23.50;99.90
23637;DHT22;11995;50.842;4.456;2023-07-09T05:05:30;23.60;99.90
23637;DHT22;11995;50.842;4.456;2023-07-09T05:07:57;23.60;99.90
23637;DHT22;11995;50.842;4.456;2023-07-09T05:10:24;23.70;99.90
23637;DHT22;11995;50.842;4.456;2023-07-09T05:12:51;23.60;99.90
23637;DHT22;11995;50.842;4.456;2023-07-09T05:15:19;23.70;99.90
23637;DHT22;11995;50.842;4.456;2023-07-09T05:17:46;23.80;99.90
23637;DHT22;11995;50.842;4.456;2023-07-09T05:20:14;24.00;99.90
23637;DHT22;11995;50.842;4.456;2023-07-09T05:22:41;24.10;99.90
23637;DHT22;11995;50.842;4.456;2023-07-09T05:25:08;24.20;99.90
23637;DHT22;11995;50.842;4.456;2023-07-09T05:27:35;24.30;99.90
23637;DHT22;11995;50.842;4.456;2023-07-09T05:30:02;24.30;99.90
23637;DHT22;11995;50.842;4.456;2023-07-09T05:32:29;24.30;99.90
23637;DHT22;11995;50.842;4.456;2023-07-09T05:34:55;24.40;99.90
23637;DHT22;11995;50.842;4.456;2023-07-09T05:37:22;24.40;99.90
23637;DHT22;11995;50.842;4.456;2023-07-09T05:39:50;24.40;99.90
23637;DHT22;11995;50.842;4.456;2023-07-09T05:42:17;24.50;99.90
23637;DHT22;11995;50.842;4.456;2023-07-09T05:44:44;24.60;99.90
23637;DHT22;11995;50.842;4.456;2023-07-09T05:47:11;24.60;99.90
23637;DHT22;11995;50.842;4.456;2023-07-09T05:49:38;24.70;99.90
23637;DHT22;11995;50.842;4.456;2023-07-09T05:52:05;24.80;99.90
23637;DHT22;11995;50.842;4.456;2023-07-09T05:54:32;24.80;99.90
23637;DHT22;11995;50.842;4.456;2023-07-09T05:56:58;24.90;99.90
23637;DHT22;11995;50.842;4.456;2023-07-09T05:59:25;24.90;99.90
23637;DHT22;11995;50.842;4.456;2023-07-09T06:01:52;24.90;99.90
23637;DHT22;11995;50.842;4.456;2023-07-09T06:04:19;24.90;99.90
23637;DHT22;11995;50.842;4.456;2023-07-09T06:06:46;25.00;99.90
23637;DHT22;11995;50.842;4.456;2023-07-09T06:09:13;25.10;99.90
23637;DHT22;11995;50.842;4.456;2023-07-09T06:11:41;25.20;99.90
23637;DHT22;11995;50.842;4.456;2023-07-09T06:14:08;25.30;99.90
23637;DHT22;11995;50.842;4.456;2023-07-09T06:16:34;25.30;99.90
23637;DHT22;11995;50.842;4.456;2023-07-09T06:19:03;25.40;99.90
23637;DHT22;11995;50.842;4.456;2023-07-09T06:21:29;25.30;99.90
23637;DHT22;11995;50.842;4.456;2023-07-09T06:23:56;25.30;99.90
23637;DHT22;11995;50.842;4.456;2023-07-09T06:26:23;25.20;99.90
23637;DHT22;11995;50.842;4.456;2023-07-09T06:28:50;25.30;99.90
23637;DHT22;11995;50.842;4.456;2023-07-09T06:31:17;25.30;99.90
23637;DHT22;11995;50.842;4.456;2023-07-09T06:33:45;25.50;99.90
23637;DHT22;11995;50.842;4.456;2023-07-09T06:36:12;25.50;99.90
23637;DHT22;11995;50.842;4.456;2023-07-09T06:38:39;25.50;99.90
23637;DHT22;11995;50.842;4.456;2023-07-09T06:41:05;25.40;99.90
23637;DHT22;11995;50.842;4.456;2023-07-09T06:43:32;25.30;99.90
23637;DHT22;11995;50.842;4.456;2023-07-09T06:46:00;25.30;99.90
23637;DHT22;11995;50.842;4.456;2023-07-09T06:48:27;25.50;99.90
23637;DHT22;11995;50.842;4.456;2023-07-09T06:50:56;25.70;99.90
23637;DHT22;11995;50.842;4.456;2023-07-09T06:53:23;25.70;99.90
23637;DHT22;11995;50.842;4.456;2023-07-09T06:55:50;25.70;99.90
23637;DHT22;11995;50.842;4.456;2023-07-09T06:58:19;25.70;99.90
23637;DHT22;11995;50.842;4.456;2023-07-09T07:00:47;25.60;99.90
23637;DHT22;11995;50.842;4.456;2023-07-09T07:03:15;25.70;99.90
23637;DHT22;11995;50.842;4.456;2023-07-09T07:05:45;26.00;99.90
23637;DHT22;11995;50.842;4.456;2023-07-09T07:08:15;26.10;99.90
23637;DHT22;11995;50.842;4.456;2023-07-09T07:10:42;26.10;99.90
23637;DHT22;11995;50.842;4.456;2023-07-09T07:13:08;26.40;99.90
23637;DHT22;11995;50.842;4.456;2023-07-09T07:15:37;26.70;99.90
23637;DHT22;11995;50.842;4.456;2023-07-09T07:18:04;26.80;99.90
23637;DHT22;11995;50.842;4.456;2023-07-09T07:20:31;27.00;99.90
23637;DHT22;11995;50.842;4.456;2023-07-09T07:22:58;26.80;99.90
23637;DHT22;11995;50.842;4.456;2023-07-09T07:25:25;26.70;99.90
23637;DHT22;11995;50.842;4.456;2023-07-09T07:27:51;26.60;99.90
23637;DHT22;11995;50.842;4.456;2023-07-09T07:30:19;26.80;99.90
23637;DHT22;11995;50.842;4.456;2023-07-09T07:32:47;26.90;99.90
23637;DHT22;11995;50.842;4.456;2023-07-09T07:35:15;27.00;99.90
23637;DHT22;11995;50.842;4.456;2023-07-09T07:37:44;27.20;99.90
23637;DHT22;11995;50.842;4.456;2023-07-09T07:40:11;27.20;99.90
23637;DHT22;11995;50.842;4.456;2023-07-09T07:42:38;27.40;99.90
23637;DHT22;11995;50.842;4.456;2023-07-09T07:45:05;27.30;99.90
23637;DHT22;11995;50.842;4.456;2023-07-09T07:47:33;27.20;99.90
23637;DHT22;11995;50.842;4.456;2023-07-09T07:50:03;27.10;99.90
23637;DHT22;11995;50.842;4.456;2023-07-09T07:52:29;27.10;99.90
23637;DHT22;11995;50.842;4.456;2023-07-09T07:54:56;27.00;99.90
23637;DHT22;11995;50.842;4.456;2023-07-09T07:57:28;27.10;99.90
23637;DHT22;11995;50.842;4.456;2023-07-09T07:59:52;27.10;99.90
23637;DHT22;11995;50.842;4.456;2023-07-09T08:02:19;27.30;99.90
23637;DHT22;11995;50.842;4.456;2023-07-09T08:04:45;27.50;99.90
23637;DHT22;11995;50.842;4.456;2023-07-09T08:07:12;27.80;99.90
23637;DHT22;11995;50.842;4.456;2023-07-09T08:09:39;28.00;99.90
23637;DHT22;11995;50.842;4.456;2023-07-09T08:12:06;28.10;99.90
23637;DHT22;11995;50.842;4.456;2023-07-09T08:14:38;28.10;99.90
23637;DHT22;11995;50.842;4.456;2023-07-09T08:17:05;27.70;99.90
23637;DHT22;11995;50.842;4.456;2023-07-09T08:19:43;27.60;99.90
23637;DHT22;11995;50.842;4.456;2023-07-09T08:22:01;27.80;99.90
23637;DHT22;11995;50.842;4.456;2023-07-09T08:24:27;28.00;99.90
23637;DHT22;11995;50.842;4.456;2023-07-09T08:26:54;28.00;99.90
23637;DHT22;11995;50.842;4.456;2023-07-09T08:29:23;27.90;99.90
23637;DHT22;11995;50.842;4.456;2023-07-09T08:31:49;27.80;99.90
23637;DHT22;11995;50.842;4.456;2023-07-09T08:34:17;27.70;99.90
23637;DHT22;11995;50.842;4.456;2023-07-09T08:36:43;27.60;99.90
23637;DHT22;11995;50.842;4.456;2023-07-09T08:39:10;27.70;99.90
23637;DHT22;11995;50.842;4.456;2023-07-09T08:41:39;27.60;99.90
23637;DHT22;11995;50.842;4.456;2023-07-09T08:49:28;27.90;99.90
23637;DHT22;11995;50.842;4.456;2023-07-09T08:51:50;28.10;99.90
23637;DHT22;11995;50.842;4.456;2023-07-09T08:54:30;28.40;99.90
23637;DHT22;11995;50.842;4.456;2023-07-09T08:56:57;28.80;99.90
23637;DHT22;11995;50.842;4.456;2023-07-09T08:59:26;29.00;99.90
23637;DHT22;11995;50.842;4.456;2023-07-09T09:01:53;29.00;99.90
23637;DHT22;11995;50.842;4.456;2023-07-09T09:04:30;29.10;99.90
23637;DHT22;11995;50.842;4.456;2023-07-09T09:07:00;28.90;99.90
23637;DHT22;11995;50.842;4.456;2023-07-09T09:09:40;28.70;99.90
23637;DHT22;11995;50.842;4.456;2023-07-09T09:14:44;28.50;99.90
23637;DHT22;11995;50.842;4.456;2023-07-09T09:17:13;28.70;99.90
23637;DHT22;11995;50.842;4.456;2023-07-09T09:19:46;28.60;99.90
23637;DHT22;11995;50.842;4.456;2023-07-09T09:22:12;28.60;99.90
23637;DHT22;11995;50.842;4.456;2023-07-09T09:27:14;28.40;99.90
23637;DHT22;11995;50.842;4.456;2023-07-09T09:29:40;28.20;99.90
23637;DHT22;11995;50.842;4.456;2023-07-09T09:32:16;28.30;99.90
23637;DHT22;11995;50.842;4.456;2023-07-09T09:34:39;28.20;99.90
23637;DHT22;11995;50.842;4.456;2023-07-09T09:37:09;28.10;99.90
23637;DHT22;11995;50.842;4.456;2023-07-09T09:39:37;28.30;99.90
23637;DHT22;11995;50.842;4.456;2023-07-09T09:42:02;28.40;99.90
23637;DHT22;11995;50.842;4.456;2023-07-09T09:44:29;28.70;99.90
23637;DHT22;11995;50.842;4.456;2023-07-09T09:46:57;29.00;99.90
23637;DHT22;11995;50.842;4.456;2023-07-09T09:49:24;28.90;99.90
23637;DHT22;11995;50.842;4.456;2023-07-09T09:51:51;28.70;99.90
23637;DHT22;11995;50.842;4.456;2023-07-09T09:54:21;28.60;99.90
23637;DHT22;11995;50.842;4.456;2023-07-09T09:56:49;28.70;99.90
23637;DHT22;11995;50.842;4.456;2023-07-09T09:59:30;28.80;99.90
23637;DHT22;11995;50.842;4.456;2023-07-09T10:01:45;29.10;99.90
23637;DHT22;11995;50.842;4.456;2023-07-09T10:04:15;29.20;99.90
23637;DHT22;11995;50.842;4.456;2023-07-09T10:06:41;29.20;99.90
23637;DHT22;11995;50.842;4.456;2023-07-09T10:16:44;29.40;99.90
23637;DHT22;11995;50.842;4.456;2023-07-09T10:21:47;29.10;99.90
23637;DHT22;11995;50.842;4.456;2023-07-09T10:26:45;29.10;99.90
23637;DHT22;11995;50.842;4.456;2023-07-09T10:29:18;29.00;99.90
23637;DHT22;11995;50.842;4.456;2023-07-09T10:31:41;29.10;99.90
23637;DHT22;11995;50.842;4.456;2023-07-09T10:36:40;29.20;99.90
23637;DHT22;11995;50.842;4.456;2023-07-09T10:39:08;29.30;99.90
23637;DHT22;11995;50.842;4.456;2023-07-09T10:41:32;29.30;99.90
23637;DHT22;11995;50.842;4.456;2023-07-09T10:44:06;29.20;99.90
23637;DHT22;11995;50.842;4.456;2023-07-09T10:46:31;29.10;99.90
23637;DHT22;11995;50.842;4.456;2023-07-09T10:48:59;28.80;99.90
23637;DHT22;11995;50.842;4.456;2023-07-09T10:51:38;28.70;99.90
23637;DHT22;11995;50.842;4.456;2023-07-09T10:54:18;28.50;99.90
23637;DHT22;11995;50.842;4.456;2023-07-09T10:56:43;28.40;99.90
23637;DHT22;11995;50.842;4.456;2023-07-09T10:59:18;28.00;99.90
23637;DHT22;11995;50.842;4.456;2023-07-09T11:01:40;27.90;99.90
23637;DHT22;11995;50.842;4.456;2023-07-09T11:04:18;27.90;99.90
23637;DHT22;11995;50.842;4.456;2023-07-09T11:06:43;28.00;99.90
23637;DHT22;11995;50.842;4.456;2023-07-09T11:09:13;28.00;99.90
23637;DHT22;11995;50.842;4.456;2023-07-09T11:11:43;28.00;99.90
23637;DHT22;11995;50.842;4.456;2023-07-09T11:16:52;27.90;99.90
23637;DHT22;11995;50.842;4.456;2023-07-09T11:19:19;28.00;99.90
23637;DHT22;11995;50.842;4.456;2023-07-09T11:22:02;27.90;99.90
23637;DHT22;11995;50.842;4.456;2023-07-09T11:24:31;27.70;99.90
23637;DHT22;11995;50.842;4.456;2023-07-09T11:26:58;27.80;99.90
23637;DHT22;11995;50.842;4.456;2023-07-09T11:29:27;27.80;99.90
23637;DHT22;11995;50.842;4.456;2023-07-09T11:31:55;27.80;99.90
23637;DHT22;11995;50.842;4.456;2023-07-09T11:34:26;27.60;99.90
23637;DHT22;11995;50.842;4.456;2023-07-09T11:39:28;27.30;99.90
23637;DHT22;11995;50.842;4.456;2023-07-09T11:41:55;27.20;99.90
23637;DHT22;11995;50.842;4.456;2023-07-09T11:44:23;27.20;99.90
23637;DHT22;11995;50.842;4.456;2023-07-09T11:49:40;27.10;99.90
23637;DHT22;11995;50.842;4.456;2023-07-09T11:52:03;26.90;99.90
23637;DHT22;11995;50.842;4.456;2023-07-09T11:54:34;26.70;99.90
23637;DHT22;11995;50.842;4.456;2023-07-09T11:57:01;26.70;99.90
23637;DHT22;11995;50.842;4.456;2023-07-09T11:59:29;26.80;99.90
23637;DHT22;11995;50.842;4.456;2023-07-09T12:01:55;26.70;99.90
23637;DHT22;11995;50.842;4.456;2023-07-09T12:04:28;26.60;99.90
23637;DHT22;11995;50.842;4.456;2023-07-09T12:06:56;26.60;99.90
23637;DHT22;11995;50.842;4.456;2023-07-09T12:09:22;26.60;99.90
23637;DHT22;11995;50.842;4.456;2023-07-09T12:11:49;26.60;99.90
23637;DHT22;11995;50.842;4.456;2023-07-09T12:14:17;26.60;99.90
23637;DHT22;11995;50.842;4.456;2023-07-09T12:16:46;26.60;99.90
23637;DHT22;11995;50.842;4.456;2023-07-09T12:19:18;26.50;99.90
23637;DHT22;11995;50.842;4.456;2023-07-09T12:21:45;26.40;99.90
23637;DHT22;11995;50.842;4.456;2023-07-09T12:26:57;26.30;99.90
23637;DHT22;11995;50.842;4.456;2023-07-09T12:29:33;26.30;99.90
23637;DHT22;11995;50.842;4.456;2023-07-09T12:31:59;25.90;99.90
23637;DHT22;11995;50.842;4.456;2023-07-09T12:34:30;25.10;99.90
23637;DHT22;11995;50.842;4.456;2023-07-09T12:36:55;24.50;99.90
23637;DHT22;11995;50.842;4.456;2023-07-09T12:39:24;24.20;99.90
23637;DHT22;11995;50.842;4.456;2023-07-09T12:41:51;24.10;99.90
23637;DHT22;11995;50.842;4.456;2023-07-09T12:44:20;24.10;99.90
23637;DHT22;11995;50.842;4.456;2023-07-09T12:46:49;24.10;99.90
23637;DHT22;11995;50.842;4.456;2023-07-09T12:49:26;23.80;99.90
23637;DHT22;11995;50.842;4.456;2023-07-09T12:51:54;23.60;99.90
23637;DHT22;11995;50.842;4.456;2023-07-09T12:54:21;23.50;99.90
23637;DHT22;11995;50.842;4.456;2023-07-09T12:56:52;23.40;99.90
23637;DHT22;11995;50.842;4.456;2023-07-09T12:59:23;23.50;99.90
23637;DHT22;11995;50.842;4.456;2023-07-09T13:01:54;23.70;99.90
23637;DHT22;11995;50.842;4.456;2023-07-09T13:04:20;23.70;99.90
23637;DHT22;11995;50.842;4.456;2023-07-09T13:06:46;23.90;99.90
23637;DHT22;11995;50.842;4.456;2023-07-09T13:09:22;24.00;99.90
23637;DHT22;11995;50.842;4.456;2023-07-09T13:11:41;24.10;99.90
23637;DHT22;11995;50.842;4.456;2023-07-09T13:14:15;24.20;99.90
23637;DHT22;11995;50.842;4.456;2023-07-09T13:16:40;24.30;99.90
23637;DHT22;11995;50.842;4.456;2023-07-09T13:19:06;24.40;99.90
23637;DHT22;11995;50.842;4.456;2023-07-09T13:21:34;24.40;99.90
23637;DHT22;11995;50.842;4.456;2023-07-09T13:24:04;24.40;99.90
23637;DHT22;11995;50.842;4.456;2023-07-09T13:26:30;24.40;99.90
23637;DHT22;11995;50.842;4.456;2023-07-09T13:28:58;24.40;99.90
23637;DHT22;11995;50.842;4.456;2023-07-09T13:31:25;24.40;99.90
23637;DHT22;11995;50.842;4.456;2023-07-09T13:33:56;24.70;99.90
23637;DHT22;11995;50.842;4.456;2023-07-09T13:36:23;24.70;99.90
23637;DHT22;11995;50.842;4.456;2023-07-09T13:38:50;25.00;99.90
23637;DHT22;11995;50.842;4.456;2023-07-09T13:41:18;25.10;99.90
23637;DHT22;11995;50.842;4.456;2023-07-09T13:43:47;25.00;99.90
23637;DHT22;11995;50.842;4.456;2023-07-09T13:46:14;25.10;99.90
23637;DHT22;11995;50.842;4.456;2023-07-09T13:48:42;25.20;99.90
23637;DHT22;11995;50.842;4.456;2023-07-09T13:51:20;25.10;99.90
23637;DHT22;11995;50.842;4.456;2023-07-09T13:53:48;24.80;99.90
23637;DHT22;11995;50.842;4.456;2023-07-09T13:56:15;24.90;99.90
23637;DHT22;11995;50.842;4.456;2023-07-09T13:58:42;25.00;99.90
23637;DHT22;11995;50.842;4.456;2023-07-09T14:01:18;25.00;99.90
23637;DHT22;11995;50.842;4.456;2023-07-09T14:03:40;25.00;99.90
23637;DHT22;11995;50.842;4.456;2023-07-09T14:06:11;25.00;99.90
23637;DHT22;11995;50.842;4.456;2023-07-09T14:08:39;25.10;99.90
23637;DHT22;11995;50.842;4.456;2023-07-09T14:11:10;25.00;99.90
23637;DHT22;11995;50.842;4.456;2023-07-09T14:13:37;25.20;99.90
23637;DHT22;11995;50.842;4.456;2023-07-09T14:16:04;25.20;99.90
23637;DHT22;11995;50.842;4.456;2023-07-09T14:18:31;25.20;99.90
23637;DHT22;11995;50.842;4.456;2023-07-09T14:20:57;25.30;99.90
23637;DHT22;11995;50.842;4.456;2023-07-09T14:23:24;25.40;99.90
23637;DHT22;11995;50.842;4.456;2023-07-09T14:25:51;25.50;99.90
23637;DHT22;11995;50.842;4.456;2023-07-09T14:28:20;25.80;99.90
23637;DHT22;11995;50.842;4.456;2023-07-09T14:30:48;25.70;99.90
23637;DHT22;11995;50.842;4.456;2023-07-09T14:33:17;25.70;99.90
23637;DHT22;11995;50.842;4.456;2023-07-09T14:35:44;25.60;99.90
23637;DHT22;11995;50.842;4.456;2023-07-09T14:40:44;25.60;99.90
23637;DHT22;11995;50.842;4.456;2023-07-09T14:43:11;25.60;99.90
23637;DHT22;11995;50.842;4.456;2023-07-09T14:45:38;25.80;99.90
23637;DHT22;11995;50.842;4.456;2023-07-09T14:48:08;25.80;99.90
23637;DHT22;11995;50.842;4.456;2023-07-09T14:50:33;25.70;99.90
23637;DHT22;11995;50.842;4.456;2023-07-09T14:53:00;25.60;99.90
23637;DHT22;11995;50.842;4.456;2023-07-09T14:55:27;25.50;99.90
23637;DHT22;11995;50.842;4.456;2023-07-09T14:57:56;25.50;99.90
23637;DHT22;11995;50.842;4.456;2023-07-09T15:00:24;25.50;99.90
23637;DHT22;11995;50.842;4.456;2023-07-09T15:02:52;25.60;99.90
23637;DHT22;11995;50.842;4.456;2023-07-09T15:05:22;25.70;99.90
23637;DHT22;11995;50.842;4.456;2023-07-09T15:07:49;25.60;99.90
23637;DHT22;11995;50.842;4.456;2023-07-09T15:10:23;25.60;99.90
23637;DHT22;11995;50.842;4.456;2023-07-09T15:12:50;25.70;99.90
23637;DHT22;11995;50.842;4.456;2023-07-09T15:15:28;25.90;99.90
23637;DHT22;11995;50.842;4.456;2023-07-09T15:17:52;25.80;99.90
23637;DHT22;11995;50.842;4.456;2023-07-09T15:20:21;25.60;99.90
23637;DHT22;11995;50.842;4.456;2023-07-09T15:22:48;25.70;99.90
23637;DHT22;11995;50.842;4.456;2023-07-09T15:25:21;26.00;99.90
23637;DHT22;11995;50.842;4.456;2023-07-09T15:27:44;26.10;99.90
23637;DHT22;11995;50.842;4.456;2023-07-09T15:30:12;26.30;99.90
23637;DHT22;11995;50.842;4.456;2023-07-09T15:32:39;26.10;99.90
23637;DHT22;11995;50.842;4.456;2023-07-09T15:35:08;26.10;99.90
23637;DHT22;11995;50.842;4.456;2023-07-09T15:37:35;26.00;99.90
23637;DHT22;11995;50.842;4.456;2023-07-09T15:40:02;25.80;99.90
23637;DHT22;11995;50.842;4.456;2023-07-09T15:42:31;26.00;99.90
23637;DHT22;11995;50.842;4.456;2023-07-09T15:44:57;26.20;99.90
23637;DHT22;11995;50.842;4.456;2023-07-09T15:47:24;26.20;99.90
23637;DHT22;11995;50.842;4.456;2023-07-09T15:49:52;26.20;99.90
23637;DHT22;11995;50.842;4.456;2023-07-09T15:52:19;26.30;99.90
23637;DHT22;11995;50.842;4.456;2023-07-09T15:54:46;26.30;99.90
23637;DHT22;11995;50.842;4.456;2023-07-09T15:57:13;26.30;99.90
23637;DHT22;11995;50.842;4.456;2023-07-09T15:59:42;26.10;99.90
23637;DHT22;11995;50.842;4.456;2023-07-09T16:02:11;26.20;99.90
23637;DHT22;11995;50.842;4.456;2023-07-09T16:04:37;26.10;99.90
23637;DHT22;11995;50.842;4.456;2023-07-09T16:07:06;26.00;99.90
23637;DHT22;11995;50.842;4.456;2023-07-09T16:09:35;26.00;99.90
23637;DHT22;11995;50.842;4.456;2023-07-09T16:12:03;25.90;99.90
23637;DHT22;11995;50.842;4.456;2023-07-09T16:14:31;25.80;99.90
23637;DHT22;11995;50.842;4.456;2023-07-09T16:17:00;25.70;99.90
23637;DHT22;11995;50.842;4.456;2023-07-09T16:19:29;25.70;99.90
23637;DHT22;11995;50.842;4.456;2023-07-09T16:22:03;25.60;99.90